Time;durP1;ratioP1;P1;durP2;ratioP2;P2;SDS_P1;SDS_P2;PMS_P1;PMS_P2;Temp;Humidity;BMP_temperature;BMP_pressure;BME280_temperature;BME280_humidity;BME280_pressure;Samples;Min_cycle;Max_cycle;Signal;HPM_P1;HPM_P2
2023/10/30 00:00:09;;;;;;;3.55;0.88;;;;;;;;;;5093814;28;20047;-62
2023/10/30 00:02:35;;;;;;;6.53;0.88;;;;;;;;;;5093847;28;20376;-62
2023/10/30 00:05:02;;;;;;;4.75;0.88;;;;;;;;;;5078740;28;20099;-62
2023/10/30 00:07:28;;;;;;;3.10;0.80;;;;;;;;;;5095460;28;20039;-62
2023/10/30 00:09:54;;;;;;;4.82;0.80;;;;;;;;;;5113806;28;20375;-62
2023/10/30 00:12:20;;;;;;;3.90;0.90;;;;;;;;;;5114056;28;20486;-62
2023/10/30 00:14:46;;;;;;;7.13;0.98;;;;;;;;;;5114009;28;20527;-62
2023/10/30 00:17:12;;;;;;;5.63;0.98;;;;;;;;;;5116706;28;20044;-62
2023/10/30 00:19:38;;;;;;;7.90;0.80;;;;;;;;;;5118255;28;20119;-62
2023/10/30 00:22:04;;;;;;;2.88;0.82;;;;;;;;;;5118202;28;20470;-62
2023/10/30 00:24:32;;;;;;;3.97;0.80;;;;;;;;;;5118466;28;20479;-62
2023/10/30 00:26:58;;;;;;;5.00;0.85;;;;;;;;;;5117536;27;20042;-62
2023/10/30 00:29:25;;;;;;;6.03;0.63;;;;;;;;;;5118039;28;20126;-62
2023/10/30 00:31:51;;;;;;;8.27;0.90;;;;;;;;;;5105906;27;20388;-62
2023/10/30 00:34:17;;;;;;;2.08;0.50;;;;;;;;;;5111055;28;20494;-62
2023/10/30 00:36:43;;;;;;;3.13;0.60;;;;;;;;;;5117076;28;20114;-62
2023/10/30 00:39:09;;;;;;;2.67;0.50;;;;;;;;;;5117037;28;20086;-62
2023/10/30 00:41:35;;;;;;;2.17;0.50;;;;;;;;;;5116839;28;20075;-62
2023/10/30 00:44:01;;;;;;;4.32;0.60;;;;;;;;;;5116686;28;20435;-62
2023/10/30 00:46:27;;;;;;;5.05;0.60;;;;;;;;;;5098698;28;20091;-63
2023/10/30 00:48:53;;;;;;;5.70;0.60;;;;;;;;;;5117022;28;20366;-62
2023/10/30 00:51:19;;;;;;;1.35;0.50;;;;;;;;;;5115527;28;20039;-62
2023/10/30 00:53:45;;;;;;;2.17;0.52;;;;;;;;;;5098444;28;20055;-62
2023/10/30 00:56:11;;;;;;;2.60;1.20;;;;;;;;;;5099022;28;20040;-62
2023/10/30 00:58:37;;;;;;;1.27;0.50;;;;;;;;;;5094287;28;20046;-62
2023/10/30 01:01:03;;;;;;;3.25;0.80;;;;;;;;;;5117424;28;20035;-62
2023/10/30 01:03:29;;;;;;;3.05;0.73;;;;;;;;;;5099223;28;20051;-62
2023/10/30 01:05:59;;;;;;;3.28;1.08;;;;;;;;;;5127762;27;20058;-62
2023/10/30 01:08:28;;;;;;;4.17;0.80;;;;;;;;;;5137569;27;20031;-62
2023/10/30 01:10:57;;;;;;;4.32;0.70;;;;;;;;;;5138434;27;20118;-62
2023/10/30 01:13:24;;;;;;;1.35;0.52;;;;;;;;;;5096670;28;20109;-63
2023/10/30 01:15:56;;;;;;;2.00;0.50;;;;;;;;;;5107114;28;20048;-62
2023/10/30 01:18:22;;;;;;;5.07;0.98;;;;;;;;;;5114933;28;20047;-62
2023/10/30 01:20:49;;;;;;;4.45;1.38;;;;;;;;;;5112950;28;20043;-62
2023/10/30 01:23:15;;;;;;;2.05;0.90;;;;;;;;;;5099639;28;20095;-62
2023/10/30 01:25:41;;;;;;;3.58;0.98;;;;;;;;;;5095701;28;20355;-62
2023/10/30 01:28:07;;;;;;;3.78;0.90;;;;;;;;;;5110045;27;20038;-62
2023/10/30 01:30:33;;;;;;;3.70;1.13;;;;;;;;;;5097909;28;20039;-61
2023/10/30 01:32:59;;;;;;;7.97;1.58;;;;;;;;;;5115991;28;20531;-62
2023/10/30 01:35:26;;;;;;;3.42;1.42;;;;;;;;;;5115723;28;20084;-61
2023/10/30 01:37:52;;;;;;;10.70;2.28;;;;;;;;;;5115422;28;20123;-62
2023/10/30 01:40:18;;;;;;;4.30;1.90;;;;;;;;;;5116011;28;20047;-62
2023/10/30 01:42:44;;;;;;;5.35;1.20;;;;;;;;;;5115633;28;20079;-62
2023/10/30 01:45:10;;;;;;;12.75;1.40;;;;;;;;;;5115797;28;20120;-62
2023/10/30 01:47:37;;;;;;;4.18;1.27;;;;;;;;;;5118146;27;20032;-62
2023/10/30 01:50:04;;;;;;;3.83;1.30;;;;;;;;;;5112750;27;20039;-62
2023/10/30 01:52:31;;;;;;;5.05;1.45;;;;;;;;;;5096966;28;20373;-61
2023/10/30 01:54:57;;;;;;;3.78;1.40;;;;;;;;;;5115923;28;20062;-61
2023/10/30 01:57:24;;;;;;;6.63;1.25;;;;;;;;;;5116916;28;20070;-62
2023/10/30 01:59:51;;;;;;;8.05;1.73;;;;;;;;;;5115838;28;20036;-62
2023/10/30 02:02:24;;;;;;;6.75;1.30;;;;;;;;;;5116233;28;20086;-62
2023/10/30 02:04:50;;;;;;;6.78;1.50;;;;;;;;;;5116173;28;20054;-62
2023/10/30 02:07:16;;;;;;;9.32;1.77;;;;;;;;;;5116386;28;20371;-62
2023/10/30 02:09:42;;;;;;;8.52;1.33;;;;;;;;;;5116545;27;20039;-63
2023/10/30 02:12:08;;;;;;;4.38;1.10;;;;;;;;;;5115301;28;20092;-62
2023/10/30 02:14:34;;;;;;;9.63;1.70;;;;;;;;;;5114853;28;20083;-62
2023/10/30 02:17:00;;;;;;;7.45;1.73;;;;;;;;;;5113704;28;20035;-62
2023/10/30 02:19:27;;;;;;;10.07;1.67;;;;;;;;;;5101775;28;20042;-62
2023/10/30 02:21:53;;;;;;;5.28;1.73;;;;;;;;;;5114967;28;20050;-62
2023/10/30 02:24:20;;;;;;;10.07;1.90;;;;;;;;;;5115224;28;20040;-62
2023/10/30 02:26:49;;;;;;;9.88;3.45;;;;;;;;;;5122017;27;20043;-62
2023/10/30 02:29:16;;;;;;;6.22;1.50;;;;;;;;;;5117622;27;20126;-61
2023/10/30 02:31:42;;;;;;;13.40;3.03;;;;;;;;;;5100329;28;20042;-62
2023/10/30 02:34:08;;;;;;;12.77;1.67;;;;;;;;;;5122265;27;20043;-62
2023/10/30 02:36:35;;;;;;;9.50;1.85;;;;;;;;;;5135546;27;20035;-62
2023/10/30 02:39:04;;;;;;;8.48;2.50;;;;;;;;;;5114922;27;20567;-62
2023/10/30 02:41:31;;;;;;;10.45;1.95;;;;;;;;;;5132706;27;20091;-63
2023/10/30 02:43:58;;;;;;;5.38;1.67;;;;;;;;;;5115435;28;20418;-62
2023/10/30 02:46:24;;;;;;;10.85;1.80;;;;;;;;;;5115085;28;20032;-62
2023/10/30 02:48:53;;;;;;;11.27;2.47;;;;;;;;;;5115360;28;20049;-62
2023/10/30 02:51:19;;;;;;;12.85;1.90;;;;;;;;;;5096645;28;20478;-62
2023/10/30 02:53:45;;;;;;;9.95;1.70;;;;;;;;;;5114072;28;20035;-62
2023/10/30 02:56:11;;;;;;;9.35;1.60;;;;;;;;;;5096194;28;20357;-62
2023/10/30 02:58:37;;;;;;;9.57;2.00;;;;;;;;;;5114186;28;20040;-62
2023/10/30 03:01:04;;;;;;;7.90;1.60;;;;;;;;;;5114718;28;20050;-63
2023/10/30 03:03:30;;;;;;;13.88;2.00;;;;;;;;;;5115063;28;20036;-62
2023/10/30 03:05:56;;;;;;;7.85;1.75;;;;;;;;;;5097506;28;20449;-63
2023/10/30 03:08:25;;;;;;;10.18;2.30;;;;;;;;;;5114959;28;20383;-62
2023/10/30 03:10:51;;;;;;;16.15;2.40;;;;;;;;;;5096653;28;20127;-62
2023/10/30 03:13:17;;;;;;;13.65;3.50;;;;;;;;;;5130102;27;20096;-62
2023/10/30 03:15:46;;;;;;;9.60;1.63;;;;;;;;;;5118007;27;20429;-62
2023/10/30 03:18:13;;;;;;;15.02;2.05;;;;;;;;;;5115352;28;20048;-62
2023/10/30 03:20:39;;;;;;;6.97;1.67;;;;;;;;;;5096326;28;20050;-62
2023/10/30 03:23:05;;;;;;;11.35;2.40;;;;;;;;;;5114654;28;20039;-61
2023/10/30 03:25:31;;;;;;;8.07;1.83;;;;;;;;;;5114843;28;20035;-62
2023/10/30 03:27:57;;;;;;;6.13;1.52;;;;;;;;;;5114634;28;20066;-62
2023/10/30 03:30:23;;;;;;;12.60;1.80;;;;;;;;;;5095368;28;20084;-63
2023/10/30 03:32:49;;;;;;;6.35;2.03;;;;;;;;;;5079785;28;20096;-63
2023/10/30 03:35:15;;;;;;;8.30;2.03;;;;;;;;;;5114195;28;20039;-62
2023/10/30 03:37:41;;;;;;;11.25;2.00;;;;;;;;;;5114144;28;20083;-63
2023/10/30 03:40:07;;;;;;;11.75;1.98;;;;;;;;;;5095680;28;20105;-61
2023/10/30 03:42:33;;;;;;;8.65;2.55;;;;;;;;;;5113780;28;20575;-62
2023/10/30 03:44:59;;;;;;;11.18;2.00;;;;;;;;;;5113624;28;20118;-62
2023/10/30 03:47:25;;;;;;;9.63;2.88;;;;;;;;;;5114149;28;20123;-61
2023/10/30 03:49:51;;;;;;;15.38;2.25;;;;;;;;;;5114194;28;20097;-61
2023/10/30 03:52:17;;;;;;;10.07;3.15;;;;;;;;;;5113949;28;20506;-62
2023/10/30 03:54:43;;;;;;;11.15;2.05;;;;;;;;;;5113901;28;20071;-62
2023/10/30 03:57:09;;;;;;;9.98;1.67;;;;;;;;;;5113013;28;20043;-63
2023/10/30 03:59:35;;;;;;;8.70;1.58;;;;;;;;;;5114197;28;20043;-61
2023/10/30 04:02:02;;;;;;;11.65;1.77;;;;;;;;;;5114211;28;20084;-62
2023/10/30 04:04:28;;;;;;;10.57;1.73;;;;;;;;;;5114220;28;20043;-61
2023/10/30 04:06:54;;;;;;;14.55;2.75;;;;;;;;;;5113371;28;20032;-62
2023/10/30 04:09:20;;;;;;;11.82;2.53;;;;;;;;;;5114134;28;20043;-62
2023/10/30 04:11:46;;;;;;;8.07;2.38;;;;;;;;;;5114090;28;20043;-62
2023/10/30 04:14:12;;;;;;;9.10;1.80;;;;;;;;;;5114071;28;20471;-61
2023/10/30 04:16:38;;;;;;;10.98;2.42;;;;;;;;;;5095786;28;20456;-62
2023/10/30 04:19:04;;;;;;;10.02;1.70;;;;;;;;;;5101418;28;20051;-63
2023/10/30 04:21:30;;;;;;;8.30;1.70;;;;;;;;;;5093709;28;20072;-62
2023/10/30 04:23:57;;;;;;;11.82;2.40;;;;;;;;;;5096519;28;20028;-62
2023/10/30 04:26:23;;;;;;;13.05;2.08;;;;;;;;;;5113957;28;20047;-62
2023/10/30 04:28:49;;;;;;;8.02;1.75;;;;;;;;;;5090634;28;20040;-62
2023/10/30 04:31:15;;;;;;;8.57;1.90;;;;;;;;;;5096020;28;20154;-62
2023/10/30 04:33:41;;;;;;;11.52;1.70;;;;;;;;;;5114282;28;20108;-62
2023/10/30 04:36:08;;;;;;;11.30;1.67;;;;;;;;;;5113573;28;20512;-62
2023/10/30 04:38:34;;;;;;;8.40;1.70;;;;;;;;;;5113505;28;20035;-62
2023/10/30 04:41:04;;;;;;;11.85;1.92;;;;;;;;;;5114100;28;20184;-62
2023/10/30 04:43:31;;;;;;;12.15;1.88;;;;;;;;;;5114092;28;20126;-62
2023/10/30 04:45:57;;;;;;;9.13;1.77;;;;;;;;;;5113383;28;20043;-61
2023/10/30 04:48:23;;;;;;;12.00;3.25;;;;;;;;;;5095347;28;20042;-61
2023/10/30 04:50:49;;;;;;;11.85;2.17;;;;;;;;;;5114349;28;20505;-62
2023/10/30 04:53:15;;;;;;;9.60;2.00;;;;;;;;;;5114320;28;20043;-62
2023/10/30 04:55:41;;;;;;;20.58;3.92;;;;;;;;;;5113511;28;20051;-62
2023/10/30 04:58:07;;;;;;;15.45;1.95;;;;;;;;;;5113095;28;20035;-61
2023/10/30 05:00:35;;;;;;;10.57;1.80;;;;;;;;;;5113419;28;20089;-61
2023/10/30 05:03:01;;;;;;;8.85;2.53;;;;;;;;;;5116131;28;20069;-62
2023/10/30 05:05:27;;;;;;;9.70;1.55;;;;;;;;;;5117282;28;20542;-61
2023/10/30 05:07:53;;;;;;;11.13;1.92;;;;;;;;;;5120547;27;20039;-62
2023/10/30 05:10:19;;;;;;;12.45;2.35;;;;;;;;;;5130476;27;20035;-62
2023/10/30 05:12:45;;;;;;;9.02;1.35;;;;;;;;;;5117255;28;20088;-61
2023/10/30 05:15:11;;;;;;;10.80;1.90;;;;;;;;;;5116815;28;20063;-62
2023/10/30 05:17:38;;;;;;;12.73;1.90;;;;;;;;;;5116805;28;20054;-62
2023/10/30 05:20:04;;;;;;;9.70;1.65;;;;;;;;;;5098804;27;20488;-62
2023/10/30 05:22:32;;;;;;;10.48;2.03;;;;;;;;;;5095502;28;20431;-62
2023/10/30 05:24:58;;;;;;;11.40;2.38;;;;;;;;;;5105350;27;20046;-62
2023/10/30 05:27:27;;;;;;;10.55;2.38;;;;;;;;;;5108807;28;20040;-62
2023/10/30 05:29:53;;;;;;;7.72;1.52;;;;;;;;;;5101020;28;20048;-62
2023/10/30 05:32:19;;;;;;;12.35;1.60;;;;;;;;;;5114684;28;20040;-62
2023/10/30 05:34:46;;;;;;;13.10;2.35;;;;;;;;;;5116898;28;20050;-62
2023/10/30 05:37:12;;;;;;;8.65;1.58;;;;;;;;;;5116784;28;20497;-62
2023/10/30 05:39:38;;;;;;;11.48;1.95;;;;;;;;;;5116600;28;20047;-62
2023/10/30 05:42:05;;;;;;;8.82;1.90;;;;;;;;;;5116677;28;20064;-62
2023/10/30 05:44:31;;;;;;;13.95;2.08;;;;;;;;;;5117216;28;20043;-62
2023/10/30 05:46:58;;;;;;;9.23;1.88;;;;;;;;;;5116533;28;20042;-62
2023/10/30 05:49:25;;;;;;;9.55;2.00;;;;;;;;;;5115799;27;20044;-63
2023/10/30 05:51:51;;;;;;;9.48;1.77;;;;;;;;;;5115488;28;20036;-63
2023/10/30 05:54:17;;;;;;;11.63;2.50;;;;;;;;;;5116452;28;20062;-62
2023/10/30 05:56:43;;;;;;;15.40;1.80;;;;;;;;;;5116676;28;20472;-62
2023/10/30 05:59:09;;;;;;;15.43;2.10;;;;;;;;;;5117176;28;20043;-62
2023/10/30 06:01:35;;;;;;;11.70;1.75;;;;;;;;;;5116874;28;20506;-63
2023/10/30 06:04:02;;;;;;;10.57;3.20;;;;;;;;;;5116250;28;20079;-62
2023/10/30 06:06:28;;;;;;;15.13;1.85;;;;;;;;;;5097896;28;20039;-62
2023/10/30 06:08:54;;;;;;;11.70;1.63;;;;;;;;;;5102308;28;20507;-62
2023/10/30 06:11:20;;;;;;;8.48;1.83;;;;;;;;;;5111655;28;20035;-62
2023/10/30 06:13:46;;;;;;;14.40;2.10;;;;;;;;;;5114216;28;20479;-62
2023/10/30 06:16:19;;;;;;;11.85;1.75;;;;;;;;;;5116274;28;20122;-62
2023/10/30 06:18:45;;;;;;;9.68;1.55;;;;;;;;;;5099661;28;20040;-63
2023/10/30 06:21:17;;;;;;;12.48;2.83;;;;;;;;;;5120902;27;20055;-62
2023/10/30 06:23:44;;;;;;;23.15;3.72;;;;;;;;;;5116369;27;20040;-64
2023/10/30 06:26:11;;;;;;;10.15;1.90;;;;;;;;;;5112258;28;20048;-62
2023/10/30 06:28:37;;;;;;;11.23;2.03;;;;;;;;;;5095958;28;20040;-62
2023/10/30 06:31:04;;;;;;;13.95;2.00;;;;;;;;;;5095802;28;20372;-62
2023/10/30 06:33:33;;;;;;;12.18;2.30;;;;;;;;;;5095258;28;20032;-63
2023/10/30 06:36:00;;;;;;;9.70;1.85;;;;;;;;;;5081944;28;20357;-62
2023/10/30 06:38:26;;;;;;;14.10;1.90;;;;;;;;;;5095435;28;20537;-62
2023/10/30 06:40:53;;;;;;;10.93;1.80;;;;;;;;;;5110407;27;20043;-62
2023/10/30 06:43:19;;;;;;;11.68;2.00;;;;;;;;;;5110069;27;20035;-62
2023/10/30 06:45:45;;;;;;;14.68;1.80;;;;;;;;;;5099746;28;20040;-63
2023/10/30 06:48:11;;;;;;;14.57;2.00;;;;;;;;;;5096024;28;20031;-63
2023/10/30 06:50:37;;;;;;;10.95;1.60;;;;;;;;;;5102350;27;20093;-62
2023/10/30 06:53:03;;;;;;;15.70;2.42;;;;;;;;;;5135829;27;20046;-63
2023/10/30 06:55:31;;;;;;;10.15;1.65;;;;;;;;;;5135750;27;20120;-63
2023/10/30 06:57:57;;;;;;;14.13;2.22;;;;;;;;;;5110532;27;20086;-62
2023/10/30 07:00:23;;;;;;;17.33;2.55;;;;;;;;;;5115299;27;20035;-62
2023/10/30 07:02:49;;;;;;;17.02;2.20;;;;;;;;;;5079607;28;20425;-62
2023/10/30 07:05:15;;;;;;;14.35;2.40;;;;;;;;;;5114717;28;20039;-62
2023/10/30 07:07:41;;;;;;;12.02;2.95;;;;;;;;;;5114289;27;20088;-62
2023/10/30 07:10:07;;;;;;;15.55;2.33;;;;;;;;;;5113486;28;20371;-62
2023/10/30 07:12:33;;;;;;;15.10;2.15;;;;;;;;;;5113958;28;20400;-62
2023/10/30 07:15:00;;;;;;;12.25;2.40;;;;;;;;;;5096220;28;20051;-62
2023/10/30 07:17:26;;;;;;;15.90;2.35;;;;;;;;;;5113753;28;20062;-63
2023/10/30 07:19:52;;;;;;;13.95;2.10;;;;;;;;;;5095257;28;20035;-62
2023/10/30 07:22:18;;;;;;;10.10;2.33;;;;;;;;;;5078253;28;20127;-62
2023/10/30 07:24:44;;;;;;;9.63;2.45;;;;;;;;;;5094649;28;20130;-64
2023/10/30 07:27:11;;;;;;;9.50;1.77;;;;;;;;;;5105932;28;20100;-63
2023/10/30 07:29:37;;;;;;;11.07;1.85;;;;;;;;;;5115043;27;20035;-62
2023/10/30 07:32:03;;;;;;;10.60;1.50;;;;;;;;;;5114641;28;20425;-62
2023/10/30 07:34:29;;;;;;;13.60;2.40;;;;;;;;;;5113763;28;20376;-63
2023/10/30 07:36:55;;;;;;;20.38;3.42;;;;;;;;;;5114531;28;20034;-62
2023/10/30 07:39:21;;;;;;;13.13;2.20;;;;;;;;;;5119455;27;20067;-62
2023/10/30 07:41:47;;;;;;;11.95;2.10;;;;;;;;;;5113499;28;20035;-62
2023/10/30 07:44:13;;;;;;;14.50;2.92;;;;;;;;;;5113613;28;20046;-62
2023/10/30 07:46:39;;;;;;;13.25;2.35;;;;;;;;;;5113978;28;20031;-62
2023/10/30 07:49:06;;;;;;;8.10;1.70;;;;;;;;;;5113497;28;20392;-62
2023/10/30 07:51:32;;;;;;;9.65;2.40;;;;;;;;;;5100218;28;20040;-63
2023/10/30 07:53:59;;;;;;;12.93;2.60;;;;;;;;;;5113631;28;20490;-64
2023/10/30 07:56:25;;;;;;;11.07;1.88;;;;;;;;;;5114601;28;20040;-63
2023/10/30 07:58:51;;;;;;;9.30;1.83;;;;;;;;;;5113468;28;20536;-63
2023/10/30 08:01:21;;;;;;;7.22;1.63;;;;;;;;;;5117185;28;20036;-63
2023/10/30 08:03:47;;;;;;;16.50;2.28;;;;;;;;;;5134010;27;20039;-62
2023/10/30 08:06:13;;;;;;;12.30;2.22;;;;;;;;;;5115967;28;20070;-63
2023/10/30 08:08:39;;;;;;;14.23;2.17;;;;;;;;;;5113658;28;20123;-63
2023/10/30 08:11:05;;;;;;;19.13;2.20;;;;;;;;;;5111903;28;20047;-63
2023/10/30 08:13:32;;;;;;;9.00;1.92;;;;;;;;;;5113358;28;20056;-63
2023/10/30 08:15:58;;;;;;;13.25;2.40;;;;;;;;;;5095531;28;20040;-63
2023/10/30 08:18:25;;;;;;;10.65;1.77;;;;;;;;;;5113558;28;20421;-63
2023/10/30 08:20:51;;;;;;;12.18;2.03;;;;;;;;;;5079250;28;20047;-63
2023/10/30 08:23:17;;;;;;;13.27;2.97;;;;;;;;;;5104899;28;20039;-63
2023/10/30 08:25:43;;;;;;;8.13;2.58;;;;;;;;;;5096915;28;20083;-63
2023/10/30 08:28:09;;;;;;;13.50;2.63;;;;;;;;;;5105417;28;20101;-63
2023/10/30 08:30:35;;;;;;;14.43;2.10;;;;;;;;;;5105016;28;20467;-63
2023/10/30 08:33:04;;;;;;;12.02;1.90;;;;;;;;;;5088698;28;20051;-63
2023/10/30 08:35:32;;;;;;;13.23;2.63;;;;;;;;;;5112563;28;20088;-63
2023/10/30 08:37:58;;;;;;;9.07;2.33;;;;;;;;;;5096964;28;20368;-63
2023/10/30 08:40:25;;;;;;;11.35;2.17;;;;;;;;;;5117937;28;20431;-63
2023/10/30 08:42:51;;;;;;;12.07;2.33;;;;;;;;;;5116962;28;20035;-63
2023/10/30 08:45:17;;;;;;;12.45;1.92;;;;;;;;;;5097958;28;20114;-63
2023/10/30 08:47:44;;;;;;;12.45;2.25;;;;;;;;;;5098352;28;20076;-63
2023/10/30 08:50:10;;;;;;;11.07;2.55;;;;;;;;;;5082502;28;20048;-63
2023/10/30 08:52:37;;;;;;;11.85;1.85;;;;;;;;;;5115717;28;20046;-63
2023/10/30 08:55:04;;;;;;;13.35;2.22;;;;;;;;;;5105232;28;20437;-63
2023/10/30 08:57:31;;;;;;;12.07;2.35;;;;;;;;;;5117145;28;20051;-62
2023/10/30 08:59:57;;;;;;;10.48;2.00;;;;;;;;;;5098232;28;20476;-63
2023/10/30 09:02:23;;;;;;;13.93;2.13;;;;;;;;;;5117181;28;20089;-63
2023/10/30 09:04:49;;;;;;;8.98;2.10;;;;;;;;;;5081394;28;20058;-63
2023/10/30 09:07:16;;;;;;;8.88;1.80;;;;;;;;;;5115235;27;20036;-63
2023/10/30 09:09:42;;;;;;;8.77;1.92;;;;;;;;;;5097867;28;20086;-63
2023/10/30 09:12:08;;;;;;;13.45;2.55;;;;;;;;;;5109409;28;20083;-63
2023/10/30 09:14:34;;;;;;;14.35;3.45;;;;;;;;;;5115301;28;20468;-63
2023/10/30 09:17:00;;;;;;;16.67;5.82;;;;;;;;;;5114914;28;20048;-63
2023/10/30 09:19:27;;;;;;;9.70;1.75;;;;;;;;;;5116429;28;20044;-63
2023/10/30 09:21:53;;;;;;;11.15;2.38;;;;;;;;;;5116791;28;20044;-63
2023/10/30 09:24:19;;;;;;;11.07;1.95;;;;;;;;;;5096723;28;20028;-63
2023/10/30 09:26:45;;;;;;;9.52;1.63;;;;;;;;;;5116529;28;20467;-63
2023/10/30 09:29:11;;;;;;;16.45;2.67;;;;;;;;;;5111838;28;20047;-63
2023/10/30 09:31:37;;;;;;;9.93;1.98;;;;;;;;;;5096350;27;20047;-64
2023/10/30 09:34:03;;;;;;;11.05;1.90;;;;;;;;;;5129033;27;20035;-63
2023/10/30 09:36:29;;;;;;;10.98;2.22;;;;;;;;;;5116103;28;20040;-63
2023/10/30 09:38:55;;;;;;;14.00;2.42;;;;;;;;;;5115755;28;20423;-63
2023/10/30 09:41:22;;;;;;;14.65;4.07;;;;;;;;;;5115618;28;20548;-63
2023/10/30 09:43:51;;;;;;;8.15;1.50;;;;;;;;;;5115719;28;20035;-63
2023/10/30 09:46:17;;;;;;;13.88;2.03;;;;;;;;;;5115292;28;20036;-62
2023/10/30 09:48:45;;;;;;;15.32;3.22;;;;;;;;;;5117559;27;20038;-61
2023/10/30 09:51:12;;;;;;;8.65;1.73;;;;;;;;;;5096806;28;20611;-62
2023/10/30 09:53:39;;;;;;;10.32;1.90;;;;;;;;;;5088105;28;20032;-64
2023/10/30 09:56:07;;;;;;;6.13;1.55;;;;;;;;;;5107218;28;20464;-62
2023/10/30 09:58:33;;;;;;;10.48;2.10;;;;;;;;;;5116609;28;20100;-64
2023/10/30 10:00:59;;;;;;;13.30;3.72;;;;;;;;;;5120207;27;20481;-62
2023/10/30 10:03:26;;;;;;;13.55;2.70;;;;;;;;;;5115718;27;20035;-64
2023/10/30 10:05:59;;;;;;;10.80;2.05;;;;;;;;;;5132070;27;20039;-65
2023/10/30 10:08:25;;;;;;;14.10;2.40;;;;;;;;;;5116288;28;20379;-64
2023/10/30 10:10:59;;;;;;;17.65;2.80;;;;;;;;;;5115304;28;20050;-64
2023/10/30 10:13:26;;;;;;;13.38;1.70;;;;;;;;;;5115106;28;20051;-64
2023/10/30 10:15:52;;;;;;;13.88;2.10;;;;;;;;;;5096694;28;20051;-65
2023/10/30 10:18:26;;;;;;;10.52;1.73;;;;;;;;;;5122471;27;20067;-64
2023/10/30 10:20:56;;;;;;;9.95;1.92;;;;;;;;;;5119047;27;20483;-65
2023/10/30 10:23:22;;;;;;;11.65;1.70;;;;;;;;;;5115060;28;20043;-65
2023/10/30 10:26:05;;;;;;;12.57;2.20;;;;;;;;;;5114659;28;20053;-65
2023/10/30 10:28:31;;;;;;;13.25;2.65;;;;;;;;;;5114615;28;20345;-64
2023/10/30 10:30:58;;;;;;;13.20;2.42;;;;;;;;;;5106082;27;20475;-64
2023/10/30 10:33:27;;;;;;;7.53;1.90;;;;;;;;;;5127312;27;20052;-65
2023/10/30 10:35:53;;;;;;;12.20;2.03;;;;;;;;;;5116835;27;20040;-64
2023/10/30 10:38:21;;;;;;;11.63;2.22;;;;;;;;;;5124207;27;20126;-65
2023/10/30 10:40:47;;;;;;;13.90;2.35;;;;;;;;;;5111761;27;20061;-66
2023/10/30 10:43:16;;;;;;;8.95;2.15;;;;;;;;;;5092628;28;20052;-66
2023/10/30 10:45:43;;;;;;;11.23;1.70;;;;;;;;;;5097370;28;20044;-66
2023/10/30 10:48:09;;;;;;;11.65;2.08;;;;;;;;;;5108549;28;20382;-66
2023/10/30 10:50:35;;;;;;;14.90;2.60;;;;;;;;;;5076936;28;20097;-65
2023/10/30 10:53:04;;;;;;;19.80;3.05;;;;;;;;;;5107918;28;20050;-65
2023/10/30 10:55:30;;;;;;;12.68;1.88;;;;;;;;;;5114621;28;20039;-65
2023/10/30 10:57:59;;;;;;;14.95;3.42;;;;;;;;;;5113643;28;20043;-65
2023/10/30 11:00:31;;;;;;;13.20;1.80;;;;;;;;;;5113102;28;20040;-65
2023/10/30 11:03:02;;;;;;;12.13;2.80;;;;;;;;;;5107868;28;20081;-65
2023/10/30 11:05:29;;;;;;;11.07;2.72;;;;;;;;;;5114120;28;20042;-66
2023/10/30 11:08:03;;;;;;;12.05;1.83;;;;;;;;;;5094035;28;20066;-66
2023/10/30 11:10:49;;;;;;;12.35;2.22;;;;;;;;;;5078276;28;20047;-66
2023/10/30 11:13:31;;;;;;;9.20;2.28;;;;;;;;;;5085753;28;20044;-66
2023/10/30 11:16:03;;;;;;;9.70;2.63;;;;;;;;;;5115205;27;20084;-68
2023/10/30 11:18:29;;;;;;;12.95;2.25;;;;;;;;;;5098092;28;20084;-66
2023/10/30 11:21:09;;;;;;;11.52;1.98;;;;;;;;;;5113710;28;20395;-65
2023/10/30 11:23:53;;;;;;;17.08;3.60;;;;;;;;;;5113280;27;20047;-66
2023/10/30 11:26:38;;;;;;;12.88;2.30;;;;;;;;;;5078700;28;20032;-66
2023/10/30 11:29:07;;;;;;;15.38;2.30;;;;;;;;;;5094949;28;20058;-66
2023/10/30 11:31:51;;;;;;;17.83;3.53;;;;;;;;;;5095519;28;20035;-66
2023/10/30 11:34:17;;;;;;;11.27;1.73;;;;;;;;;;5113430;28;20126;-65
2023/10/30 11:36:46;;;;;;;12.93;1.90;;;;;;;;;;5128298;27;21315;-66
2023/10/30 11:39:12;;;;;;;10.05;2.00;;;;;;;;;;5095696;28;20039;-67
2023/10/30 11:41:39;;;;;;;9.88;1.83;;;;;;;;;;5096227;28;20172;-67
2023/10/30 11:44:10;;;;;;;14.07;2.28;;;;;;;;;;5096204;28;20429;-66
2023/10/30 11:46:41;;;;;;;10.30;2.22;;;;;;;;;;5112685;28;20042;-67
2023/10/30 11:49:08;;;;;;;14.45;2.30;;;;;;;;;;5096028;28;20098;-67
2023/10/30 11:51:35;;;;;;;10.77;2.30;;;;;;;;;;5114950;28;20051;-67
2023/10/30 11:54:02;;;;;;;9.40;2.50;;;;;;;;;;5097169;28;20040;-66
2023/10/30 11:56:28;;;;;;;8.48;1.80;;;;;;;;;;5095323;28;20169;-66
2023/10/30 11:58:54;;;;;;;12.52;2.35;;;;;;;;;;5113523;28;20133;-66
2023/10/30 12:01:21;;;;;;;11.80;3.63;;;;;;;;;;5114206;28;20035;-66
2023/10/30 12:03:48;;;;;;;12.93;2.05;;;;;;;;;;5114681;28;20460;-66
2023/10/30 12:06:14;;;;;;;9.20;2.25;;;;;;;;;;5092399;28;20044;-66
2023/10/30 12:08:40;;;;;;;13.52;2.78;;;;;;;;;;5114219;28;20043;-68
2023/10/30 12:11:06;;;;;;;6.65;1.77;;;;;;;;;;5096856;28;20065;-67
2023/10/30 12:13:32;;;;;;;10.23;1.98;;;;;;;;;;5100209;28;20523;-66
2023/10/30 12:15:58;;;;;;;10.15;1.98;;;;;;;;;;5117879;28;20122;-66
2023/10/30 12:18:24;;;;;;;11.40;2.35;;;;;;;;;;5100450;28;20122;-67
2023/10/30 12:20:50;;;;;;;12.30;2.17;;;;;;;;;;5100333;28;20436;-66
2023/10/30 12:23:17;;;;;;;9.38;2.78;;;;;;;;;;5098622;28;20051;-66
2023/10/30 12:25:44;;;;;;;15.45;3.35;;;;;;;;;;5117730;28;20040;-66
2023/10/30 12:28:10;;;;;;;12.02;2.08;;;;;;;;;;5119001;28;20449;-66
2023/10/30 12:30:38;;;;;;;11.05;3.28;;;;;;;;;;5099473;28;20478;-66
2023/10/30 12:33:04;;;;;;;19.05;2.28;;;;;;;;;;5098488;28;20050;-66
2023/10/30 12:35:31;;;;;;;11.32;2.22;;;;;;;;;;5100321;28;20118;-66
2023/10/30 12:37:57;;;;;;;11.63;1.70;;;;;;;;;;5117435;28;20384;-67
2023/10/30 12:40:23;;;;;;;19.05;2.47;;;;;;;;;;5098306;28;20040;-67
2023/10/30 12:42:49;;;;;;;11.80;2.30;;;;;;;;;;5117223;28;20058;-69
2023/10/30 12:45:20;;;;;;;11.13;2.15;;;;;;;;;;5100723;28;20058;-66
2023/10/30 12:47:47;;;;;;;13.80;2.88;;;;;;;;;;5099968;28;20039;-66
2023/10/30 12:50:14;;;;;;;20.67;3.70;;;;;;;;;;5079783;28;20044;-65
2023/10/30 12:52:44;;;;;;;11.50;1.85;;;;;;;;;;5098146;28;20042;-66
2023/10/30 12:55:10;;;;;;;18.07;2.80;;;;;;;;;;5099315;28;20414;-66
2023/10/30 12:57:40;;;;;;;14.13;2.90;;;;;;;;;;5102875;28;20047;-66
2023/10/30 13:00:08;;;;;;;10.15;1.90;;;;;;;;;;5096646;28;20105;-66
2023/10/30 13:02:34;;;;;;;8.93;2.38;;;;;;;;;;5096812;28;20051;-70
2023/10/30 13:05:00;;;;;;;15.68;2.63;;;;;;;;;;5091513;27;20032;-71
2023/10/30 13:07:26;;;;;;;11.65;2.03;;;;;;;;;;5098018;28;20039;-71
2023/10/30 13:09:52;;;;;;;17.40;2.92;;;;;;;;;;5099128;28;20040;-69
2023/10/30 13:12:19;;;;;;;14.55;2.33;;;;;;;;;;5099921;28;20131;-69
2023/10/30 13:14:45;;;;;;;9.90;2.22;;;;;;;;;;5098772;28;20399;-70
2023/10/30 13:17:11;;;;;;;9.07;2.08;;;;;;;;;;5096134;28;20047;-70
2023/10/30 13:19:38;;;;;;;10.70;2.28;;;;;;;;;;5112598;28;20437;-69
2023/10/30 13:22:04;;;;;;;12.25;2.20;;;;;;;;;;5097609;28;20088;-69
2023/10/30 13:24:30;;;;;;;13.27;2.50;;;;;;;;;;5098347;28;20043;-70
2023/10/30 13:26:56;;;;;;;15.55;2.30;;;;;;;;;;5097862;28;20130;-69
2023/10/30 13:29:22;;;;;;;16.85;2.38;;;;;;;;;;5099417;28;20039;-69
2023/10/30 13:31:48;;;;;;;10.10;2.33;;;;;;;;;;5114112;28;20051;-69
2023/10/30 13:34:16;;;;;;;12.50;2.03;;;;;;;;;;5078887;28;20039;-72
2023/10/30 13:36:42;;;;;;;12.60;2.55;;;;;;;;;;5078623;28;20087;-70
2023/10/30 13:39:08;;;;;;;14.88;2.33;;;;;;;;;;5092201;28;20459;-69
2023/10/30 13:41:34;;;;;;;12.63;1.90;;;;;;;;;;5097734;28;20031;-69
2023/10/30 13:44:00;;;;;;;11.77;2.00;;;;;;;;;;5099931;27;20126;-69
2023/10/30 13:46:26;;;;;;;11.43;2.00;;;;;;;;;;5098667;28;20074;-69
2023/10/30 13:48:55;;;;;;;11.20;2.50;;;;;;;;;;5097427;28;20078;-69
2023/10/30 13:51:21;;;;;;;15.57;2.70;;;;;;;;;;5081038;28;20364;-70
2023/10/30 13:53:50;;;;;;;12.40;1.85;;;;;;;;;;5097401;28;20044;-69
2023/10/30 13:56:16;;;;;;;15.02;3.40;;;;;;;;;;5076479;28;20047;-69
2023/10/30 13:58:42;;;;;;;7.72;1.90;;;;;;;;;;5115436;28;20035;-70
2023/10/30 14:01:08;;;;;;;11.52;2.25;;;;;;;;;;5097884;28;20132;-68
2023/10/30 14:03:34;;;;;;;16.45;2.47;;;;;;;;;;5114600;28;20040;-69
2023/10/30 14:06:00;;;;;;;14.00;2.38;;;;;;;;;;5097187;28;20047;-68
2023/10/30 14:08:28;;;;;;;14.65;2.55;;;;;;;;;;5097773;28;20081;-69
2023/10/30 14:10:54;;;;;;;9.65;1.90;;;;;;;;;;5075454;28;20097;-69
2023/10/30 14:13:20;;;;;;;15.07;2.92;;;;;;;;;;5091201;28;20135;-69
2023/10/30 14:15:46;;;;;;;10.07;2.20;;;;;;;;;;5082635;28;20130;-69
2023/10/30 14:18:12;;;;;;;12.13;2.42;;;;;;;;;;5097143;28;20047;-69
2023/10/30 14:20:38;;;;;;;12.93;2.00;;;;;;;;;;5094235;28;20083;-69
2023/10/30 14:23:04;;;;;;;13.00;2.15;;;;;;;;;;5088614;28;20472;-69
2023/10/30 14:25:30;;;;;;;10.88;1.83;;;;;;;;;;5096614;28;20027;-69
2023/10/30 14:27:56;;;;;;;10.05;2.20;;;;;;;;;;5095977;28;20047;-68
2023/10/30 14:30:22;;;;;;;14.32;2.00;;;;;;;;;;5098707;28;20050;-69
2023/10/30 14:32:48;;;;;;;11.68;2.72;;;;;;;;;;5076619;28;20043;-68